Weather at Livno Brda Bosni Airport

Public forecast

Using degrees Celsius for public forecast. Weather courtesy of forecast.io.

Closest aviation weather report (METAR) to Livno Brda Bosni Airport

Closest report is Split Airport, 30.0 nm (55.5 km) WSW.

2024/05/27 00:00 (retrieved 21 minutes ago)

LDSP 270000Z AUTO VRB02KT CAVOK 16/11 Q1018

Closest aviation forecast (TAF) to Livno Brda Bosni Airport

Forecast is more than 12 hours old.

Closest forecast is Bra─Ź Airport, 31.7 nm (58.8 km) SSW.

2024/05/26 10:30 Ammendment (retrieved 14 hours ago)

TAF AMD TAF AMD LDSB 261026Z 2610/2706 CNL